Time;durP1;ratioP1;P1;durP2;ratioP2;P2;SDS_P1;SDS_P2;PMS_P1;PMS_P2;Temp;Humidity;BMP_temperature;BMP_pressure;BME280_temperature;BME280_humidity;BME280_pressure;Samples;Min_cycle;Max_cycle;Signal;HPM_P1;HPM_P2
2022/01/27 00:01:59;;;;;;;35.50;17.93;;;0.70;99.90;;;;;;5028254;28;20049;-72
2022/01/27 00:04:34;;;;;;;38.65;18.70;;;0.60;99.90;;;;;;5032527;28;20045;-72
2022/01/27 00:06:59;;;;;;;37.38;17.92;;;0.60;99.90;;;;;;5025352;28;20033;-72
2022/01/27 00:09:42;;;;;;;35.78;15.48;;;0.60;99.90;;;;;;5028599;28;20091;-72
2022/01/27 00:12:08;;;;;;;37.53;19.48;;;0.60;99.90;;;;;;5025360;28;20136;-72
2022/01/27 00:14:44;;;;;;;31.63;17.48;;;0.70;99.90;;;;;;5032990;28;20061;-72
2022/01/27 00:17:13;;;;;;;38.40;17.20;;;1.00;99.90;;;;;;5033237;28;20029;-72
2022/01/27 00:19:39;;;;;;;36.33;19.10;;;1.10;99.90;;;;;;5032423;28;20033;-72
2022/01/27 00:22:05;;;;;;;31.05;16.15;;;1.20;99.90;;;;;;5029644;28;20033;-72
2022/01/27 00:24:31;;;;;;;27.35;13.00;;;1.10;99.90;;;;;;5030951;28;20124;-72
2022/01/27 00:26:58;;;;;;;27.98;13.18;;;1.10;99.90;;;;;;5030670;28;20121;-72
2022/01/27 00:29:24;;;;;;;33.13;17.27;;;1.10;99.90;;;;;;5029813;28;20029;-72
2022/01/27 00:31:50;;;;;;;39.03;19.50;;;1.10;99.90;;;;;;5032419;28;20486;-72
2022/01/27 00:34:16;;;;;;;33.00;14.77;;;1.00;99.90;;;;;;5032431;28;20033;-72
2022/01/27 00:36:41;;;;;;;31.15;16.90;;;1.00;99.90;;;;;;5028844;28;20037;-72
2022/01/27 00:39:07;;;;;;;45.50;21.95;;;1.10;99.90;;;;;;5032030;28;20033;-72
2022/01/27 00:41:33;;;;;;;23.13;12.30;;;1.10;99.90;;;;;;5029690;28;20029;-72
2022/01/27 00:43:58;;;;;;;25.70;13.98;;;1.40;99.90;;;;;;5033403;28;20038;-72
2022/01/27 00:46:24;;;;;;;27.42;14.40;;;1.80;99.90;;;;;;5030450;28;20037;-72
2022/01/27 00:48:50;;;;;;;27.27;13.88;;;1.70;99.90;;;;;;5028445;28;20049;-72
2022/01/27 00:51:21;;;;;;;28.70;16.02;;;1.40;99.90;;;;;;5024769;28;20069;-72
2022/01/27 00:54:01;;;;;;;30.05;16.90;;;1.30;99.90;;;;;;5032692;28;20033;-72
2022/01/27 00:56:54;;;;;;;31.90;15.82;;;1.10;99.90;;;;;;5033207;28;20032;-72
2022/01/27 00:59:25;;;;;;;30.15;15.40;;;1.10;99.90;;;;;;5031188;28;20037;-73
2022/01/27 01:04:47;;;;;;;25.63;14.40;;;0.90;99.90;;;;;;5008354;28;20106;-70
2022/01/27 01:07:14;;;;;;;36.75;19.05;;;0.70;99.90;;;;;;5026993;28;20037;-71
2022/01/27 01:15:05;;;;;;;17.50;10.35;;;1.00;99.90;;;;;;5032443;28;20052;-73
2022/01/27 01:31:28;;;;;;;22.10;12.10;;;1.30;99.90;;;;;;5026619;28;20279;-73
2022/01/27 01:34:14;;;;;;;30.00;14.45;;;1.10;99.90;;;;;;5030668;28;20033;-72
2022/01/27 01:39:25;;;;;;;24.25;12.80;;;1.10;99.90;;;;;;5030671;28;20041;-72
2022/01/27 01:41:52;;;;;;;25.23;11.40;;;0.90;99.90;;;;;;5029810;28;20030;-72
2022/01/27 01:44:18;;;;;;;23.85;13.70;;;0.80;99.90;;;;;;5030120;28;20072;-73
2022/01/27 01:46:43;;;;;;;33.42;16.13;;;0.80;99.90;;;;;;5022141;28;20030;-72
2022/01/27 01:49:09;;;;;;;27.17;15.05;;;0.80;99.90;;;;;;5030594;28;20430;-72
2022/01/27 01:51:38;;;;;;;24.02;13.90;;;0.70;99.90;;;;;;5024014;28;20033;-73
2022/01/27 01:54:06;;;;;;;22.42;12.05;;;0.70;99.90;;;;;;5031336;28;20079;-73
2022/01/27 01:56:32;;;;;;;23.70;11.57;;;0.70;99.90;;;;;;5028893;28;20080;-73
2022/01/27 01:58:58;;;;;;;23.10;10.15;;;0.80;99.90;;;;;;5024946;28;20029;-72
2022/01/27 02:01:24;;;;;;;23.63;9.18;;;0.90;99.90;;;;;;5023793;28;20112;-72
2022/01/27 02:03:50;;;;;;;22.20;12.40;;;0.90;99.90;;;;;;5030777;28;20513;-72
2022/01/27 02:06:28;;;;;;;29.10;14.80;;;0.90;99.90;;;;;;5029742;28;20033;-72
2022/01/27 02:09:24;;;;;;;26.38;12.80;;;0.90;99.90;;;;;;5029849;28;20036;-72
2022/01/27 02:19:55;;;;;;;30.75;15.38;;;0.80;99.90;;;;;;5025732;28;20117;-71
2022/01/27 02:22:22;;;;;;;25.83;13.27;;;0.90;99.90;;;;;;5031581;28;20034;-71
2022/01/27 02:24:49;;;;;;;25.67;13.15;;;1.00;99.90;;;;;;5030966;28;20045;-71
2022/01/27 02:27:15;;;;;;;28.98;14.50;;;1.00;99.90;;;;;;5031702;28;20121;-71
2022/01/27 02:29:44;;;;;;;25.48;13.30;;;1.00;99.90;;;;;;5029137;28;20046;-72
2022/01/27 02:32:11;;;;;;;25.45;11.65;;;1.00;99.90;;;;;;5030210;28;20041;-72
2022/01/27 02:34:37;;;;;;;21.23;10.82;;;1.00;99.90;;;;;;5024309;28;20108;-72
2022/01/27 02:37:03;;;;;;;24.38;12.98;;;0.90;99.90;;;;;;5025318;28;20065;-72
2022/01/27 02:39:28;;;;;;;20.70;10.20;;;1.00;99.90;;;;;;5030364;28;20037;-73
2022/01/27 02:42:14;;;;;;;21.65;11.32;;;0.90;99.90;;;;;;5026503;28;20029;-73
2022/01/27 02:44:46;;;;;;;20.58;10.98;;;1.00;99.90;;;;;;5028486;28;20032;-72
2022/01/27 02:47:13;;;;;;;18.40;9.98;;;0.90;99.90;;;;;;5030447;28;20026;-72
2022/01/27 02:49:39;;;;;;;17.25;10.27;;;0.80;99.90;;;;;;5025846;28;20083;-72
2022/01/27 02:52:05;;;;;;;18.98;8.65;;;0.90;99.90;;;;;;5026073;28;20036;-72
2022/01/27 02:54:31;;;;;;;19.45;10.27;;;1.00;99.90;;;;;;5026279;28;20391;-72
2022/01/27 02:56:57;;;;;;;16.65;8.57;;;0.90;99.90;;;;;;5030131;28;20045;-72
2022/01/27 02:59:23;;;;;;;21.95;10.85;;;0.90;99.90;;;;;;5029234;28;20051;-74
2022/01/27 03:01:50;;;;;;;19.88;10.20;;;1.00;99.90;;;;;;5030907;28;20044;-72
2022/01/27 03:04:17;;;;;;;18.13;9.40;;;0.90;99.90;;;;;;5027902;28;20040;-73
2022/01/27 03:06:44;;;;;;;20.67;10.00;;;0.90;99.90;;;;;;5030827;28;20556;-72
2022/01/27 03:09:09;;;;;;;18.27;10.63;;;0.80;99.90;;;;;;5031004;28;20029;-72
2022/01/27 03:11:38;;;;;;;16.60;8.48;;;0.80;99.90;;;;;;5027326;28;20121;-72
2022/01/27 03:14:04;;;;;;;19.45;9.38;;;0.90;99.90;;;;;;5025934;28;20479;-73
2022/01/27 03:16:30;;;;;;;21.13;9.80;;;0.90;99.70;;;;;;5026886;28;20088;-72
2022/01/27 03:18:56;;;;;;;22.05;11.98;;;0.80;99.90;;;;;;5031556;28;20483;-72
2022/01/27 03:21:21;;;;;;;24.15;12.55;;;0.90;99.90;;;;;;5028531;28;20467;-74
2022/01/27 03:23:47;;;;;;;21.75;11.57;;;1.00;99.90;;;;;;5031225;28;20435;-72
2022/01/27 03:26:14;;;;;;;21.33;10.95;;;0.90;99.90;;;;;;5027214;28;20468;-72
2022/01/27 03:28:40;;;;;;;20.75;10.98;;;0.90;99.90;;;;;;5030898;28;20088;-72
2022/01/27 03:31:05;;;;;;;16.95;10.05;;;0.60;99.90;;;;;;5030211;28;20029;-73
2022/01/27 03:33:31;;;;;;;24.77;13.05;;;0.60;99.90;;;;;;5032592;28;20091;-72
2022/01/27 03:35:57;;;;;;;21.52;11.68;;;0.60;99.90;;;;;;5032437;28;20025;-72
2022/01/27 03:38:23;;;;;;;24.00;12.38;;;0.60;99.90;;;;;;5034308;28;20430;-72
2022/01/27 03:40:48;;;;;;;22.77;10.45;;;0.60;99.90;;;;;;5025583;28;20041;-72
2022/01/27 03:43:14;;;;;;;30.70;14.38;;;0.70;99.90;;;;;;5033587;28;20472;-72
2022/01/27 03:45:40;;;;;;;23.55;12.15;;;0.60;99.90;;;;;;5032425;28;20474;-72
2022/01/27 03:48:07;;;;;;;22.05;12.15;;;0.40;99.90;;;;;;5029087;28;20028;-72
2022/01/27 03:50:33;;;;;;;20.67;11.32;;;0.30;99.90;;;;;;5033044;28;20036;-72
2022/01/27 03:52:58;;;;;;;23.10;11.30;;;0.30;99.90;;;;;;5032721;28;20021;-73
2022/01/27 03:55:24;;;;;;;23.15;11.38;;;0.30;99.90;;;;;;5030010;28;20025;-72
2022/01/27 03:57:50;;;;;;;21.90;11.98;;;0.20;99.90;;;;;;5034147;28;20717;-72
2022/01/27 04:00:16;;;;;;;20.63;11.00;;;0.10;99.90;;;;;;5023757;28;20033;-71
2022/01/27 04:02:54;;;;;;;25.98;12.27;;;0.20;99.90;;;;;;5024950;28;20088;-71
2022/01/27 04:05:20;;;;;;;27.15;11.93;;;0.10;99.90;;;;;;5020787;28;20038;-71
2022/01/27 04:07:45;;;;;;;28.80;14.20;;;0.10;99.90;;;;;;5021710;28;20391;-71
2022/01/27 04:10:11;;;;;;;31.60;14.73;;;0.10;99.90;;;;;;5025007;28;20033;-70
2022/01/27 04:12:37;;;;;;;30.95;15.90;;;0.10;99.90;;;;;;5022478;28;20076;-71
2022/01/27 04:15:04;;;;;;;32.63;15.00;;;0.10;99.90;;;;;;5022495;28;20056;-71
2022/01/27 04:17:29;;;;;;;23.30;13.30;;;0.20;99.90;;;;;;5023947;28;20034;-71
2022/01/27 04:19:57;;;;;;;25.52;11.88;;;0.40;99.90;;;;;;5024446;28;20545;-71
2022/01/27 04:22:23;;;;;;;23.63;12.82;;;0.40;99.90;;;;;;5026763;28;20416;-71
2022/01/27 04:24:49;;;;;;;21.05;9.27;;;0.40;99.90;;;;;;5028129;28;20384;-71
2022/01/27 04:27:20;;;;;;;21.25;9.65;;;0.30;99.90;;;;;;5017466;28;20032;-71
2022/01/27 04:29:46;;;;;;;22.73;9.98;;;0.40;99.90;;;;;;5027591;28;20021;-71
2022/01/27 04:32:13;;;;;;;17.88;8.10;;;0.30;99.90;;;;;;5028686;28;20025;-71
2022/01/27 04:34:41;;;;;;;22.13;10.80;;;0.40;99.90;;;;;;5026540;28;20048;-71
2022/01/27 04:37:10;;;;;;;21.30;8.82;;;0.40;99.90;;;;;;5023916;28;20029;-71
2022/01/27 04:39:50;;;;;;;23.73;13.00;;;0.50;99.90;;;;;;5023995;28;20033;-71
2022/01/27 04:42:27;;;;;;;26.83;13.63;;;0.50;99.90;;;;;;5022313;28;20064;-71
2022/01/27 04:44:59;;;;;;;26.30;12.95;;;0.40;99.90;;;;;;5025444;28;20085;-71
2022/01/27 04:47:32;;;;;;;25.70;10.95;;;0.40;99.90;;;;;;5022416;28;20033;-72
2022/01/27 04:49:58;;;;;;;21.88;11.95;;;0.50;99.90;;;;;;5028111;28;20057;-71
2022/01/27 04:52:26;;;;;;;22.27;11.38;;;0.60;99.90;;;;;;5023838;28;20033;-71
2022/01/27 04:54:59;;;;;;;18.45;10.15;;;0.60;99.90;;;;;;5027795;28;20025;-71
2022/01/27 04:57:27;;;;;;;22.38;10.35;;;0.60;99.90;;;;;;5022056;28;20196;-72
2022/01/27 04:59:53;;;;;;;19.83;9.48;;;0.70;99.90;;;;;;5024714;28;20041;-72
2022/01/27 05:02:33;;;;;;;15.52;8.32;;;0.70;99.90;;;;;;5023789;28;20395;-71
2022/01/27 05:04:59;;;;;;;17.02;8.70;;;0.70;99.90;;;;;;5022506;28;20041;-72
2022/01/27 05:07:24;;;;;;;22.10;10.15;;;0.90;99.90;;;;;;5012919;28;20040;-71
2022/01/27 05:09:56;;;;;;;21.38;11.63;;;0.90;99.90;;;;;;5024605;28;20534;-71
2022/01/27 05:12:36;;;;;;;20.95;10.75;;;1.00;99.90;;;;;;5019299;28;20040;-73
2022/01/27 05:15:02;;;;;;;22.25;11.10;;;1.00;99.80;;;;;;5022215;28;20588;-71
2022/01/27 05:17:28;;;;;;;28.27;13.88;;;1.10;99.70;;;;;;5023642;28;20033;-69
2022/01/27 05:19:54;;;;;;;25.40;11.50;;;1.20;99.90;;;;;;5024771;28;20550;-72
2022/01/27 05:22:19;;;;;;;17.10;9.02;;;1.30;99.40;;;;;;5021404;28;20056;-71
2022/01/27 05:24:45;;;;;;;24.15;11.13;;;1.30;99.20;;;;;;5022898;28;20058;-71
2022/01/27 05:27:11;;;;;;;16.00;9.05;;;1.20;99.40;;;;;;5020813;28;20170;-72
2022/01/27 05:29:36;;;;;;;22.27;11.55;;;1.00;99.40;;;;;;5022881;28;20026;-71
2022/01/27 05:32:02;;;;;;;21.02;10.88;;;1.00;99.50;;;;;;5023922;28;20041;-71
2022/01/27 05:34:28;;;;;;;19.50;10.40;;;1.00;99.80;;;;;;5023841;28;20598;-71
2022/01/27 05:36:53;;;;;;;18.52;11.15;;;0.90;99.80;;;;;;5024607;28;20029;-71
2022/01/27 05:39:19;;;;;;;21.00;10.73;;;0.80;99.90;;;;;;5024743;28;20045;-71
2022/01/27 05:41:45;;;;;;;21.90;10.55;;;0.80;99.80;;;;;;5013923;28;20040;-71
2022/01/27 05:44:10;;;;;;;19.23;9.25;;;1.00;99.70;;;;;;5019683;28;20059;-71
2022/01/27 05:46:36;;;;;;;17.38;10.18;;;1.00;99.70;;;;;;5016120;28;20053;-71
2022/01/27 05:49:03;;;;;;;19.23;9.85;;;1.20;98.90;;;;;;5024911;28;20435;-72
2022/01/27 05:51:28;;;;;;;21.27;10.10;;;1.20;98.80;;;;;;5021621;28;20120;-71
2022/01/27 05:53:54;;;;;;;16.35;7.63;;;1.20;98.50;;;;;;5024324;28;20168;-71
2022/01/27 05:56:20;;;;;;;11.50;5.00;;;1.10;98.30;;;;;;5024106;28;20041;-71
2022/01/27 05:58:45;;;;;;;12.27;6.25;;;1.10;97.90;;;;;;5016928;28;20130;-71
2022/01/27 06:01:12;;;;;;;13.05;7.10;;;1.10;98.10;;;;;;5020388;28;20273;-71
2022/01/27 06:03:37;;;;;;;14.70;7.15;;;1.00;98.10;;;;;;5023998;28;20048;-71
2022/01/27 06:06:03;;;;;;;15.48;7.53;;;1.10;98.10;;;;;;5017495;28;20049;-71
2022/01/27 06:08:30;;;;;;;10.20;5.95;;;1.10;98.20;;;;;;5024146;28;20048;-71
2022/01/27 06:10:56;;;;;;;13.73;7.55;;;1.00;98.30;;;;;;5023012;28;20029;-71
2022/01/27 06:13:23;;;;;;;16.80;8.85;;;0.90;98.40;;;;;;5023551;28;20626;-71
2022/01/27 06:15:49;;;;;;;20.92;9.20;;;0.80;98.90;;;;;;5023456;28;20126;-71
2022/01/27 06:18:15;;;;;;;20.30;9.73;;;0.50;99.90;;;;;;5022886;28;20033;-71
2022/01/27 06:20:43;;;;;;;21.27;11.15;;;0.50;99.90;;;;;;5023858;28;20033;-71
2022/01/27 06:23:09;;;;;;;26.63;13.50;;;0.50;99.90;;;;;;5023178;28;20390;-71
2022/01/27 06:25:35;;;;;;;26.42;10.75;;;0.40;99.90;;;;;;5025059;28;20041;-71
2022/01/27 06:28:01;;;;;;;15.95;8.23;;;0.30;99.90;;;;;;5022033;28;20025;-70
2022/01/27 06:30:27;;;;;;;16.33;5.47;;;0.20;99.90;;;;;;5021159;28;20548;-71
2022/01/27 06:32:54;;;;;;;22.92;9.57;;;0.60;98.70;;;;;;5021987;28;20029;-72
2022/01/27 06:35:19;;;;;;;21.15;11.77;;;0.50;99.50;;;;;;5022973;28;20061;-70
2022/01/27 06:37:47;;;;;;;24.33;14.25;;;0.30;99.90;;;;;;5020885;28;20651;-73
2022/01/27 06:40:14;;;;;;;26.33;12.60;;;0.40;99.90;;;;;;5017613;28;20053;-71
2022/01/27 06:42:41;;;;;;;27.90;14.10;;;0.30;99.90;;;;;;5022703;28;20477;-71
2022/01/27 06:45:07;;;;;;;32.97;17.73;;;0.50;99.90;;;;;;5023833;28;20048;-71
2022/01/27 06:47:33;;;;;;;37.50;23.17;;;0.30;99.90;;;;;;5024198;28;20029;-71
2022/01/27 06:49:59;;;;;;;25.38;14.63;;;0.50;99.90;;;;;;5017110;28;20034;-71
2022/01/27 06:52:27;;;;;;;9.52;4.63;;;0.90;99.40;;;;;;5023127;28;20040;-71
2022/01/27 06:54:56;;;;;;;10.55;4.43;;;1.30;96.80;;;;;;5023374;28;20522;-71
2022/01/27 06:57:23;;;;;;;11.18;5.72;;;1.50;95.90;;;;;;5024224;28;20041;-72
2022/01/27 06:59:49;;;;;;;16.20;6.63;;;1.60;96.00;;;;;;5023625;28;20033;-71
2022/01/27 07:02:14;;;;;;;26.33;12.52;;;1.70;95.60;;;;;;5024047;28;20033;-71
2022/01/27 07:04:40;;;;;;;28.30;13.40;;;1.20;97.90;;;;;;5023096;28;20046;-69
2022/01/27 07:07:06;;;;;;;25.15;12.32;;;0.80;99.70;;;;;;5027369;28;20029;-71
2022/01/27 07:09:32;;;;;;;22.38;12.65;;;0.70;99.90;;;;;;5027244;28;20179;-71
2022/01/27 07:11:57;;;;;;;23.95;13.10;;;0.60;99.90;;;;;;5025284;28;20040;-71
2022/01/27 07:14:23;;;;;;;18.52;10.48;;;0.60;99.90;;;;;;5025343;28;20446;-71
2022/01/27 07:16:49;;;;;;;19.73;9.70;;;0.70;99.90;;;;;;5022889;28;21073;-71
2022/01/27 07:19:15;;;;;;;14.48;9.32;;;0.80;99.50;;;;;;5020588;28;20037;-71
2022/01/27 07:21:40;;;;;;;18.70;9.50;;;0.90;99.50;;;;;;5022964;28;20026;-71
2022/01/27 07:24:06;;;;;;;19.45;9.95;;;0.90;99.50;;;;;;5026302;28;20049;-72
2022/01/27 07:26:32;;;;;;;19.40;9.32;;;1.00;99.10;;;;;;5025105;28;20021;-71
2022/01/27 07:28:58;;;;;;;18.88;9.10;;;1.00;99.00;;;;;;5022467;28;20026;-71
2022/01/27 07:31:24;;;;;;;14.48;8.73;;;1.20;98.20;;;;;;5025567;28;20510;-71
2022/01/27 07:33:51;;;;;;;17.27;8.63;;;1.20;98.30;;;;;;5025986;28;20029;-71
2022/01/27 07:36:17;;;;;;;19.42;8.10;;;1.40;97.90;;;;;;5027219;28;20041;-71
2022/01/27 07:38:43;;;;;;;15.95;7.63;;;1.50;97.70;;;;;;5027706;28;20061;-71
2022/01/27 07:41:12;;;;;;;17.27;8.80;;;1.50;97.10;;;;;;5026233;28;20478;-71
2022/01/27 07:43:38;;;;;;;10.65;6.43;;;1.50;97.30;;;;;;5025513;28;20387;-71
2022/01/27 07:46:03;;;;;;;12.27;6.20;;;1.70;96.40;;;;;;5026733;28;20030;-71
2022/01/27 07:48:29;;;;;;;13.40;6.55;;;1.90;96.00;;;;;;5027327;28;20144;-71
2022/01/27 07:50:55;;;;;;;17.30;9.25;;;1.70;96.80;;;;;;5025772;28;20044;-73
2022/01/27 07:53:21;;;;;;;15.93;9.50;;;1.60;96.90;;;;;;5027092;28;20124;-71
2022/01/27 07:55:47;;;;;;;19.98;11.25;;;1.60;97.00;;;;;;5026287;28;20112;-71
2022/01/27 07:58:13;;;;;;;21.05;9.55;;;1.50;97.20;;;;;;5020940;28;20128;-71
2022/01/27 08:00:40;;;;;;;19.75;9.95;;;1.30;97.90;;;;;;5020297;28;20122;-71
2022/01/27 08:03:05;;;;;;;17.67;8.98;;;1.40;98.10;;;;;;5022577;28;20039;-71
2022/01/27 08:05:31;;;;;;;20.65;10.13;;;1.30;98.10;;;;;;5017648;28;20041;-71
2022/01/27 08:07:57;;;;;;;15.80;8.98;;;1.20;98.60;;;;;;5023031;28;20029;-71
2022/01/27 08:10:22;;;;;;;15.88;9.52;;;1.30;98.40;;;;;;5026221;28;20075;-71
2022/01/27 08:12:48;;;;;;;20.00;9.75;;;1.30;98.40;;;;;;5025831;28;20033;-71
2022/01/27 08:15:18;;;;;;;25.08;11.90;;;1.40;98.40;;;;;;5021372;28;20187;-71
2022/01/27 08:17:43;;;;;;;16.05;9.73;;;1.30;98.50;;;;;;5025930;28;20049;-72
2022/01/27 08:20:10;;;;;;;20.88;11.25;;;1.30;98.60;;;;;;5026528;28;20034;-72
2022/01/27 08:22:40;;;;;;;21.17;9.98;;;1.30;98.70;;;;;;5026152;28;20025;-73
2022/01/27 08:25:06;;;;;;;16.42;10.18;;;1.20;98.70;;;;;;5025125;28;20045;-70
2022/01/27 08:27:32;;;;;;;18.08;9.93;;;1.20;98.40;;;;;;5025264;28;20030;-71
2022/01/27 08:30:03;;;;;;;15.93;8.77;;;1.40;98.60;;;;;;5025963;28;20517;-71
2022/01/27 08:32:46;;;;;;;21.08;9.00;;;1.40;98.40;;;;;;5023941;28;20103;-71
2022/01/27 08:35:13;;;;;;;16.00;8.05;;;1.60;98.10;;;;;;5018799;28;20056;-71
2022/01/27 08:37:39;;;;;;;17.65;8.27;;;1.60;97.70;;;;;;5019286;28;20029;-71
2022/01/27 08:40:06;;;;;;;14.23;7.47;;;1.70;97.60;;;;;;5023246;28;20068;-71
2022/01/27 08:42:31;;;;;;;13.85;6.78;;;1.80;97.40;;;;;;5017703;28;20053;-71
2022/01/27 08:44:57;;;;;;;18.88;8.70;;;1.90;96.60;;;;;;5019974;28;20069;-71
2022/01/27 08:47:23;;;;;;;14.00;7.45;;;2.10;97.00;;;;;;5025362;28;20030;-72
2022/01/27 08:49:49;;;;;;;11.18;6.93;;;2.20;96.60;;;;;;5022898;28;20083;-71
2022/01/27 08:52:15;;;;;;;11.20;6.70;;;2.30;95.70;;;;;;5021967;28;20034;-71
2022/01/27 08:54:41;;;;;;;11.98;5.95;;;2.30;96.00;;;;;;5025624;28;20034;-71
2022/01/27 08:57:06;;;;;;;14.65;6.45;;;2.40;95.20;;;;;;5023966;28;20033;-71
2022/01/27 08:59:33;;;;;;;11.40;6.35;;;2.50;95.30;;;;;;5021634;28;20090;-71
2022/01/27 09:01:59;;;;;;;10.93;6.55;;;2.50;95.60;;;;;;5025551;28;20442;-70
2022/01/27 09:04:24;;;;;;;17.92;11.45;;;2.60;94.90;;;;;;5023638;28;20068;-71
2022/01/27 09:06:50;;;;;;;11.43;5.70;;;2.70;94.70;;;;;;5024863;28;20026;-71
2022/01/27 09:09:15;;;;;;;12.10;5.68;;;2.80;93.80;;;;;;5021126;28;20800;-71
2022/01/27 09:11:46;;;;;;;12.35;5.47;;;2.90;93.80;;;;;;5016842;28;20486;-71
2022/01/27 09:14:13;;;;;;;9.93;5.32;;;3.00;94.10;;;;;;5016834;28;20025;-71
2022/01/27 09:16:39;;;;;;;13.35;5.65;;;3.10;93.50;;;;;;5021250;28;20025;-71
2022/01/27 09:19:05;;;;;;;9.25;5.07;;;3.20;93.30;;;;;;5023000;28;20041;-71
2022/01/27 09:21:44;;;;;;;10.35;5.50;;;3.20;92.80;;;;;;5022566;28;20045;-71
2022/01/27 09:24:14;;;;;;;10.77;5.15;;;3.30;93.00;;;;;;5017714;28;20395;-71
2022/01/27 09:29:15;;;;;;;16.23;7.57;;;3.40;93.00;;;;;;5022197;28;20096;-71
2022/01/27 09:31:41;;;;;;;12.23;7.20;;;3.50;93.20;;;;;;5022332;28;20628;-71
2022/01/27 09:34:07;;;;;;;13.93;6.97;;;3.60;93.30;;;;;;5022754;28;20519;-71
2022/01/27 09:36:32;;;;;;;12.43;5.78;;;3.70;93.00;;;;;;5023277;28;20033;-71
2022/01/27 09:38:58;;;;;;;10.50;5.05;;;3.80;92.60;;;;;;5019648;28;20119;-71
2022/01/27 09:41:27;;;;;;;9.80;5.07;;;3.90;93.10;;;;;;5021517;28;20033;-71
2022/01/27 09:43:54;;;;;;;13.23;5.82;;;3.90;93.40;;;;;;5022668;28;20040;-71
2022/01/27 09:46:24;;;;;;;9.93;5.28;;;3.90;93.20;;;;;;5020571;28;20029;-72
2022/01/27 09:48:51;;;;;;;11.00;6.15;;;3.90;93.90;;;;;;5023460;28;20042;-71
2022/01/27 09:53:50;;;;;;;15.13;8.07;;;3.90;93.60;;;;;;5024990;28;20033;-69
2022/01/27 09:56:17;;;;;;;13.80;7.70;;;3.90;94.40;;;;;;5023221;28;20068;-71
2022/01/27 09:58:43;;;;;;;18.40;10.50;;;3.80;94.90;;;;;;5022969;28;20021;-71
2022/01/27 10:01:09;;;;;;;30.05;14.60;;;3.80;95.80;;;;;;5023664;28;20056;-71
2022/01/27 10:03:55;;;;;;;56.47;37.08;;;3.80;96.40;;;;;;5023871;28;20942;-71
2022/01/27 10:06:27;;;;;;;60.80;38.35;;;3.50;97.50;;;;;;5024211;28;20038;-71
2022/01/27 10:09:12;;;;;;;50.92;31.20;;;3.40;97.20;;;;;;5023330;28;20036;-71
2022/01/27 10:11:38;;;;;;;25.90;15.00;;;3.30;96.60;;;;;;5023794;28;20030;-71
2022/01/27 10:14:25;;;;;;;16.85;10.70;;;3.30;96.20;;;;;;5023823;28;20036;-73
2022/01/27 10:16:54;;;;;;;18.92;10.90;;;3.30;95.50;;;;;;5022741;28;20116;-71
2022/01/27 10:19:22;;;;;;;22.52;11.35;;;3.40;95.30;;;;;;5022212;28;20131;-71
2022/01/27 10:21:48;;;;;;;117.25;64.35;;;3.50;95.50;;;;;;5021047;28;20092;-71
2022/01/27 10:24:26;;;;;;;182.43;106.15;;;3.50;95.60;;;;;;5021309;28;20069;-71
2022/01/27 10:28:10;;;;;;;31.73;20.73;;;3.60;95.10;;;;;;5019399;28;20105;-71
2022/01/27 10:32:57;;;;;;;22.30;13.35;;;3.40;94.00;;;;;;5017393;28;20069;-71
2022/01/27 10:35:25;;;;;;;19.88;10.57;;;3.30;94.30;;;;;;5016968;28;20076;-71
2022/01/27 10:38:02;;;;;;;17.25;10.18;;;3.50;94.20;;;;;;5017949;28;20026;-71
2022/01/27 10:40:42;;;;;;;17.15;11.05;;;3.60;94.30;;;;;;5021640;28;20029;-71
2022/01/27 10:43:14;;;;;;;16.90;8.77;;;3.60;94.30;;;;;;5027672;28;20079;-71
2022/01/27 10:48:51;;;;;;;16.75;8.57;;;3.80;93.90;;;;;;5023345;28;20041;-71
2022/01/27 10:51:27;;;;;;;18.67;9.68;;;3.90;94.20;;;;;;5026154;28;20091;-71
2022/01/27 10:54:38;;;;;;;20.60;10.10;;;4.00;93.90;;;;;;5020433;28;20052;-71
2022/01/27 10:56:43;;;;;;;16.83;9.88;;;4.10;93.80;;;;;;5020321;28;20191;-71
2022/01/27 10:59:17;;;;;;;12.70;8.07;;;4.10;93.60;;;;;;5025791;28;20603;-71
2022/01/27 11:01:48;;;;;;;13.98;7.88;;;4.10;93.00;;;;;;5027785;28;20120;-70
2022/01/27 11:04:16;;;;;;;19.90;8.05;;;4.00;93.20;;;;;;5027769;28;20049;-70
2022/01/27 11:06:56;;;;;;;14.57;8.57;;;4.00;93.10;;;;;;5024153;28;20034;-70
2022/01/27 11:09:23;;;;;;;14.20;8.00;;;4.00;93.10;;;;;;5023063;28;20071;-69
2022/01/27 11:11:52;;;;;;;16.85;8.85;;;4.10;93.40;;;;;;5024415;28;20129;-70
2022/01/27 11:14:19;;;;;;;17.65;9.38;;;4.20;93.10;;;;;;5022584;28;20040;-71
2022/01/27 11:16:47;;;;;;;15.45;8.27;;;4.40;93.40;;;;;;5022161;28;20537;-69
2022/01/27 11:19:20;;;;;;;14.77;8.98;;;4.50;93.40;;;;;;5023522;28;20136;-69
2022/01/27 11:21:50;;;;;;;22.60;11.43;;;4.60;93.90;;;;;;5019982;28;20121;-70
2022/01/27 11:24:26;;;;;;;25.80;13.15;;;4.70;94.60;;;;;;5021541;28;20045;-70
2022/01/27 11:26:55;;;;;;;25.02;13.70;;;4.50;95.80;;;;;;5026061;28;20029;-69
2022/01/27 11:29:23;;;;;;;30.52;16.30;;;4.40;96.50;;;;;;5021168;28;20033;-69
2022/01/27 11:32:07;;;;;;;27.48;16.77;;;4.70;97.60;;;;;;5027163;28;20037;-70
2022/01/27 11:34:55;;;;;;;29.35;17.20;;;4.40;97.50;;;;;;5022919;28;20030;-71
2022/01/27 11:37:35;;;;;;;27.90;18.17;;;4.20;98.00;;;;;;5020839;28;20068;-72
2022/01/27 11:40:03;;;;;;;30.10;17.45;;;4.30;98.20;;;;;;5027160;28;20116;-72
2022/01/27 11:42:35;;;;;;;31.40;18.23;;;4.30;98.10;;;;;;5026637;28;20033;-72
2022/01/27 11:45:22;;;;;;;27.30;16.40;;;4.20;97.80;;;;;;5024796;28;20060;-75
2022/01/27 11:47:52;;;;;;;30.95;16.92;;;4.40;97.70;;;;;;5026509;28;20029;-73
2022/01/27 11:50:48;;;;;;;33.67;19.02;;;4.60;97.80;;;;;;5024743;28;20033;-73
2022/01/27 11:53:27;;;;;;;34.85;17.52;;;4.60;97.60;;;;;;5023698;28;20020;-73
2022/01/27 11:55:53;;;;;;;33.15;16.75;;;4.40;97.60;;;;;;5021594;28;20078;-72
2022/01/27 11:58:21;;;;;;;29.23;16.98;;;4.40;97.90;;;;;;5028890;28;20041;-72
2022/01/27 12:01:14;;;;;;;22.15;12.43;;;4.40;97.50;;;;;;5026773;28;20042;-72
2022/01/27 12:04:01;;;;;;;15.65;9.15;;;4.50;94.80;;;;;;5026466;28;20046;-71
2022/01/27 12:06:26;;;;;;;24.23;13.40;;;4.70;94.00;;;;;;5020993;28;20403;-72
2022/01/27 12:09:21;;;;;;;27.88;12.88;;;4.70;94.50;;;;;;5022418;28;20044;-72
2022/01/27 12:11:50;;;;;;;24.80;11.05;;;4.70;95.10;;;;;;5024036;28;20030;-71
2022/01/27 12:14:48;;;;;;;24.40;13.70;;;4.70;94.80;;;;;;5025236;28;20071;-71
2022/01/27 12:17:15;;;;;;;25.13;14.05;;;4.70;95.60;;;;;;5025778;28;20041;-72
2022/01/27 12:19:56;;;;;;;25.95;13.25;;;4.60;95.90;;;;;;5025652;28;20045;-72
2022/01/27 12:22:26;;;;;;;22.65;13.10;;;4.60;95.60;;;;;;5026345;28;20116;-72
2022/01/27 12:24:56;;;;;;;24.08;13.98;;;4.60;95.20;;;;;;5025816;28;20053;-72
2022/01/27 12:27:23;;;;;;;28.75;14.50;;;4.80;95.70;;;;;;5023005;28;20518;-72
2022/01/27 12:29:51;;;;;;;28.15;15.75;;;4.80;95.90;;;;;;5026311;28;20029;-72
2022/01/27 12:32:17;;;;;;;29.10;14.80;;;4.90;95.90;;;;;;5021230;28;20139;-74
2022/01/27 12:35:00;;;;;;;27.65;14.25;;;4.80;95.80;;;;;;5018298;28;20197;-73
2022/01/27 12:37:34;;;;;;;23.85;14.75;;;4.80;95.90;;;;;;5019303;28;20036;-72
2022/01/27 12:40:07;;;;;;;29.67;15.77;;;4.70;95.60;;;;;;5022181;28;20021;-72
2022/01/27 12:42:37;;;;;;;23.33;13.38;;;4.90;95.60;;;;;;5025830;28;20033;-72
2022/01/27 12:45:09;;;;;;;36.58;20.13;;;4.90;95.60;;;;;;5022622;28;20444;-72
2022/01/27 12:47:40;;;;;;;31.60;19.33;;;4.80;95.60;;;;;;5025508;28;20029;-72
2022/01/27 12:50:09;;;;;;;33.85;18.13;;;5.00;95.70;;;;;;5025092;28;20140;-72
2022/01/27 12:52:40;;;;;;;30.33;17.50;;;5.00;95.60;;;;;;5025440;28;20072;-72
2022/01/27 12:55:12;;;;;;;23.27;14.73;;;5.00;95.80;;;;;;5022866;28;20040;-72
2022/01/27 12:57:40;;;;;;;30.50;18.63;;;5.10;95.60;;;;;;5024299;28;20483;-72
2022/01/27 13:00:12;;;;;;;29.10;16.88;;;5.00;95.40;;;;;;5018220;28;20017;-72
2022/01/27 13:02:38;;;;;;;35.90;21.27;;;5.10;95.30;;;;;;5025179;28;20056;-72
2022/01/27 13:05:06;;;;;;;54.83;33.83;;;5.20;95.30;;;;;;5017298;28;20113;-73
2022/01/27 13:07:36;;;;;;;32.92;16.02;;;5.20;95.20;;;;;;5020518;28;20025;-72
2022/01/27 13:10:15;;;;;;;24.33;13.55;;;5.30;94.90;;;;;;5014589;28;20038;-72
2022/01/27 13:15:14;;;;;;;22.48;13.32;;;5.30;94.50;;;;;;5005455;28;20073;-72
2022/01/27 13:18:02;;;;;;;24.05;14.32;;;5.40;94.60;;;;;;5004953;28;20053;-73
2022/01/27 13:23:02;;;;;;;35.83;19.88;;;5.70;94.40;;;;;;5003775;28;20049;-73
2022/01/27 13:25:38;;;;;;;32.90;18.83;;;5.60;94.50;;;;;;5005319;28;20079;-72
2022/01/27 13:28:04;;;;;;;27.45;14.23;;;5.70;94.40;;;;;;5004814;28;20034;-73
2022/01/27 13:30:31;;;;;;;21.02;13.23;;;5.70;94.20;;;;;;5004901;28;20041;-72
2022/01/27 13:32:58;;;;;;;22.40;14.18;;;5.60;93.90;;;;;;5004831;28;20050;-72
2022/01/27 13:35:23;;;;;;;32.03;15.88;;;5.50;94.20;;;;;;5004869;28;20040;-72
2022/01/27 13:37:49;;;;;;;29.45;14.75;;;5.60;94.50;;;;;;5004702;28;20026;-72
2022/01/27 13:43:17;;;;;;;28.45;15.20;;;5.60;94.30;;;;;;4993681;28;20282;-73